createdAt,value
2017-07-14T00:00:04.305Z,17.70
2017-07-14T00:02:32.415Z,17.70
2017-07-14T00:05:00.535Z,17.70
2017-07-14T00:07:28.631Z,17.70
2017-07-14T00:09:56.725Z,17.70
2017-07-14T00:12:24.949Z,17.70
2017-07-14T00:14:53.065Z,17.60
2017-07-14T00:17:21.198Z,17.50
2017-07-14T00:19:49.290Z,17.40
2017-07-14T00:22:17.414Z,17.30
2017-07-14T00:24:45.533Z,17.30
2017-07-14T00:27:13.630Z,17.30
2017-07-14T00:29:41.881Z,17.30
2017-07-14T00:32:09.973Z,17.40
2017-07-14T00:34:38.062Z,17.40
2017-07-14T00:37:06.186Z,17.40
2017-07-14T00:39:34.289Z,17.30
2017-07-14T00:42:02.411Z,17.20
2017-07-14T00:44:30.514Z,17.10
2017-07-14T00:46:58.633Z,17.00
2017-07-14T00:49:26.873Z,17.00
2017-07-14T00:51:54.961Z,17.00
2017-07-14T00:54:23.062Z,17.10
2017-07-14T00:56:51.174Z,17.10
2017-07-14T00:59:19.302Z,17.10
2017-07-14T01:01:47.390Z,17.00
2017-07-14T01:04:15.510Z,17.00
2017-07-14T01:06:43.605Z,17.10
2017-07-14T01:09:11.860Z,17.10
2017-07-14T01:11:39.950Z,17.10
2017-07-14T01:14:08.050Z,17.10
2017-07-14T01:16:36.191Z,17.10
2017-07-14T01:19:04.275Z,17.10
2017-07-14T01:21:32.366Z,17.00
2017-07-14T01:24:00.502Z,16.90
2017-07-14T01:26:28.593Z,16.90
2017-07-14T01:28:58.014Z,17.00
2017-07-14T01:31:26.102Z,17.00
2017-07-14T01:33:54.232Z,17.10
2017-07-14T01:36:22.320Z,17.10
2017-07-14T01:38:50.447Z,17.10
2017-07-14T01:41:18.541Z,17.10
2017-07-14T01:43:46.774Z,17.10
2017-07-14T01:46:14.900Z,17.10
2017-07-14T01:48:43.022Z,17.20
2017-07-14T01:51:11.138Z,17.20
2017-07-14T01:53:39.214Z,17.30
2017-07-14T01:56:07.342Z,17.30
2017-07-14T01:58:35.581Z,17.40
2017-07-14T02:01:03.669Z,17.50
2017-07-14T02:03:31.794Z,17.50
2017-07-14T02:05:59.884Z,17.60
2017-07-14T02:08:28.013Z,17.60
2017-07-14T02:10:56.088Z,17.70
2017-07-14T02:13:24.182Z,17.80
2017-07-14T02:15:52.408Z,17.80
2017-07-14T02:18:20.502Z,17.80
2017-07-14T02:20:48.593Z,17.80
2017-07-14T02:23:16.714Z,17.80
2017-07-14T02:25:44.812Z,17.90
2017-07-14T02:28:12.905Z,17.80
2017-07-14T02:30:41.029Z,17.90
2017-07-14T02:33:09.142Z,17.90
2017-07-14T02:35:37.235Z,17.80
2017-07-14T02:38:06.652Z,17.80
2017-07-14T02:40:34.748Z,17.80
2017-07-14T02:43:02.902Z,17.80
2017-07-14T02:45:30.992Z,17.80
2017-07-14T02:47:59.149Z,17.80
2017-07-14T02:50:27.234Z,17.70
2017-07-14T02:52:55.330Z,17.70
2017-07-14T02:55:23.453Z,17.70
2017-07-14T02:57:51.561Z,17.70
2017-07-14T03:00:19.678Z,17.70
2017-07-14T03:02:47.801Z,17.70
2017-07-14T03:05:15.887Z,17.70
2017-07-14T03:07:43.989Z,17.70
2017-07-14T03:10:12.214Z,17.60
2017-07-14T03:12:40.309Z,17.70
2017-07-14T03:15:08.423Z,17.70
2017-07-14T03:17:36.585Z,17.70
2017-07-14T03:20:04.737Z,17.70
2017-07-14T03:22:32.840Z,17.80
2017-07-14T03:25:00.966Z,17.80
2017-07-14T03:27:29.054Z,17.80
2017-07-14T03:29:57.146Z,17.80
2017-07-14T03:32:25.274Z,17.80
2017-07-14T03:34:53.365Z,17.80
2017-07-14T03:37:21.454Z,17.70
2017-07-14T03:39:49.682Z,17.70
2017-07-14T03:42:17.809Z,17.80
2017-07-14T03:44:45.924Z,17.70
2017-07-14T03:47:14.033Z,17.70
2017-07-14T03:49:42.150Z,17.70
2017-07-14T03:52:10.245Z,17.70
2017-07-14T03:54:38.471Z,17.70
2017-07-14T03:57:06.597Z,17.70
2017-07-14T03:59:34.697Z,17.70
2017-07-14T04:02:02.820Z,17.70
2017-07-14T04:04:30.923Z,17.70
2017-07-14T04:06:58.998Z,17.70
2017-07-14T04:09:27.109Z,17.70
2017-07-14T04:11:55.199Z,17.70
2017-07-14T04:14:23.314Z,17.70
2017-07-14T04:16:51.541Z,17.70
2017-07-14T04:19:19.637Z,17.70
2017-07-14T04:21:47.729Z,17.80
2017-07-14T04:24:15.851Z,17.70
2017-07-14T04:26:43.945Z,17.70
2017-07-14T04:29:12.032Z,17.80
2017-07-14T04:31:40.150Z,17.80
2017-07-14T04:34:08.241Z,17.80
2017-07-14T04:36:36.331Z,17.70
2017-07-14T04:39:04.568Z,17.70
2017-07-14T04:41:32.661Z,17.80
2017-07-14T04:44:00.749Z,17.80
2017-07-14T04:46:28.873Z,17.80
2017-07-14T04:48:56.958Z,17.80
2017-07-14T04:51:25.049Z,17.90
2017-07-14T04:53:53.169Z,17.80
2017-07-14T04:56:21.390Z,17.90
2017-07-14T04:58:49.477Z,17.90
2017-07-14T05:01:17.602Z,18.00
2017-07-14T05:03:45.713Z,18.00
2017-07-14T05:06:13.845Z,18.00
2017-07-14T05:08:41.926Z,18.00
2017-07-14T05:11:10.017Z,18.00
2017-07-14T05:13:38.246Z,18.10
2017-07-14T05:16:06.349Z,18.20
2017-07-14T05:18:34.492Z,18.20
2017-07-14T05:21:02.594Z,18.30
2017-07-14T05:23:30.681Z,18.40
2017-07-14T05:25:58.800Z,18.30
2017-07-14T05:28:27.038Z,18.20
2017-07-14T05:30:55.133Z,18.20
2017-07-14T05:33:23.222Z,18.30
2017-07-14T05:35:52.531Z,18.30
2017-07-14T05:38:20.645Z,18.30
2017-07-14T05:40:48.756Z,18.30
2017-07-14T05:43:16.850Z,18.40
2017-07-14T05:45:45.088Z,18.40
2017-07-14T05:48:13.189Z,18.40
2017-07-14T05:50:41.282Z,18.40
2017-07-14T05:53:09.421Z,18.50
2017-07-14T05:55:37.513Z,18.50
2017-07-14T05:58:05.598Z,18.70
2017-07-14T06:00:33.722Z,18.70
2017-07-14T06:03:01.816Z,18.70
2017-07-14T06:05:30.064Z,18.80
2017-07-14T06:07:58.152Z,18.90
2017-07-14T06:10:26.246Z,18.90
2017-07-14T06:12:54.385Z,19.00
2017-07-14T06:15:22.494Z,19.10
2017-07-14T06:17:50.575Z,19.10
2017-07-14T06:20:18.705Z,19.10
2017-07-14T06:22:46.788Z,19.00
2017-07-14T06:25:14.877Z,19.00
2017-07-14T06:27:43.101Z,19.10
2017-07-14T06:30:11.221Z,19.20
2017-07-14T06:32:39.322Z,19.10
2017-07-14T06:35:07.418Z,19.20
2017-07-14T06:37:35.651Z,19.30
2017-07-14T06:40:04.686Z,19.20
2017-07-14T06:42:32.771Z,19.20
2017-07-14T06:45:01.008Z,19.30
2017-07-14T06:47:29.107Z,19.30
2017-07-14T06:49:57.200Z,19.40
2017-07-14T06:52:25.320Z,19.40
2017-07-14T06:54:53.421Z,19.60
2017-07-14T06:57:21.509Z,19.60
2017-07-14T06:59:50.952Z,19.60
2017-07-14T07:02:19.056Z,19.70
2017-07-14T07:04:47.146Z,19.80
2017-07-14T07:07:15.274Z,20.00
2017-07-14T07:09:43.377Z,20.00
2017-07-14T07:12:11.529Z,20.10
2017-07-14T07:14:39.642Z,20.20
2017-07-14T07:17:07.737Z,20.20
2017-07-14T07:19:35.985Z,20.40
2017-07-14T07:22:04.089Z,20.50
2017-07-14T07:24:32.187Z,20.70
2017-07-14T07:27:00.321Z,20.80
2017-07-14T07:29:28.426Z,21.00
2017-07-14T07:31:56.520Z,21.10
2017-07-14T07:34:24.651Z,21.10
2017-07-14T07:36:52.767Z,21.20
2017-07-14T07:39:20.849Z,21.20
2017-07-14T07:41:49.091Z,21.20
2017-07-14T07:44:17.189Z,21.20
2017-07-14T07:46:45.310Z,21.30
2017-07-14T07:49:13.417Z,21.20
2017-07-14T07:51:41.577Z,21.20
2017-07-14T07:54:09.682Z,21.10
2017-07-14T07:56:37.776Z,21.10
2017-07-14T07:59:06.020Z,21.10
2017-07-14T08:01:34.124Z,21.20
2017-07-14T08:04:02.228Z,21.10
2017-07-14T08:06:30.379Z,21.10
2017-07-14T08:08:58.470Z,21.10
2017-07-14T08:11:26.568Z,21.10
2017-07-14T08:13:54.708Z,21.10
2017-07-14T08:16:22.836Z,21.20
2017-07-14T08:18:50.928Z,21.20
2017-07-14T08:21:19.181Z,21.10
2017-07-14T08:23:47.278Z,21.00
2017-07-14T08:26:15.369Z,21.20
2017-07-14T08:28:43.507Z,21.20
2017-07-14T08:31:11.602Z,21.10
2017-07-14T08:33:39.734Z,21.10
2017-07-14T08:36:07.858Z,21.10
2017-07-14T08:38:35.969Z,21.10
2017-07-14T08:41:04.197Z,21.10
2017-07-14T08:43:32.318Z,21.10
2017-07-14T08:46:00.428Z,21.00
2017-07-14T08:48:28.672Z,21.00
2017-07-14T08:50:56.773Z,21.00
2017-07-14T08:53:24.934Z,21.00
2017-07-14T08:55:53.029Z,21.00
2017-07-14T08:58:21.178Z,21.10
2017-07-14T09:00:49.281Z,21.10
2017-07-14T09:03:17.454Z,21.00
2017-07-14T09:05:45.584Z,20.90
2017-07-14T09:08:13.682Z,21.00
2017-07-14T09:10:41.808Z,21.00
2017-07-14T09:13:09.938Z,21.10
2017-07-14T09:15:38.115Z,21.10
2017-07-14T09:18:06.211Z,21.20
2017-07-14T09:20:35.560Z,21.20
2017-07-14T09:23:03.688Z,21.30
2017-07-14T09:25:31.768Z,21.30
2017-07-14T09:27:59.893Z,21.30
2017-07-14T09:30:27.994Z,21.30
2017-07-14T09:32:56.085Z,21.10
2017-07-14T09:35:24.271Z,21.20
2017-07-14T09:37:52.376Z,21.20
2017-07-14T09:40:20.461Z,21.30
2017-07-14T09:42:48.577Z,21.40
2017-07-14T09:45:16.721Z,21.50
2017-07-14T09:47:44.873Z,21.60
2017-07-14T09:50:12.985Z,21.60
2017-07-14T09:52:41.219Z,21.60
2017-07-14T09:55:09.330Z,21.70
2017-07-14T09:57:37.493Z,21.80
2017-07-14T10:00:05.644Z,21.90
2017-07-14T10:02:33.742Z,21.90
2017-07-14T10:05:01.850Z,21.90
2017-07-14T10:07:29.978Z,22.00
2017-07-14T10:09:58.089Z,22.00
2017-07-14T10:12:26.361Z,22.10
2017-07-14T10:14:54.477Z,22.10
2017-07-14T10:17:22.581Z,22.10
2017-07-14T10:19:50.710Z,22.10
2017-07-14T10:22:18.808Z,22.20
2017-07-14T10:24:46.942Z,22.20
2017-07-14T10:27:15.062Z,22.30
2017-07-14T10:29:43.162Z,22.40
2017-07-14T10:32:11.433Z,22.50
2017-07-14T10:34:39.519Z,22.70
2017-07-14T10:37:07.609Z,22.70
2017-07-14T10:39:35.831Z,22.60
2017-07-14T10:42:03.932Z,22.50
2017-07-14T10:44:32.112Z,22.50
2017-07-14T10:47:00.331Z,22.60
2017-07-14T10:49:28.470Z,22.60
2017-07-14T10:51:56.626Z,22.70
2017-07-14T10:54:25.232Z,22.70
2017-07-14T10:56:53.347Z,22.90
2017-07-14T10:59:21.511Z,23.10
2017-07-14T11:01:49.704Z,23.20
2017-07-14T11:04:17.857Z,23.20
2017-07-14T11:06:45.977Z,23.20
2017-07-14T11:09:14.131Z,23.20
2017-07-14T11:11:42.332Z,23.20
2017-07-14T11:14:10.470Z,23.20
2017-07-14T11:16:38.628Z,23.30
2017-07-14T11:19:06.743Z,23.40
2017-07-14T11:21:34.875Z,23.40
2017-07-14T11:24:03.129Z,23.40
2017-07-14T11:26:31.274Z,23.30
2017-07-14T11:28:59.499Z,23.20
2017-07-14T11:31:27.619Z,23.00
2017-07-14T11:33:55.725Z,23.10
2017-07-14T11:36:23.910Z,23.10
2017-07-14T11:38:52.045Z,23.20
2017-07-14T11:41:20.171Z,23.30
2017-07-14T11:43:48.354Z,23.60
2017-07-14T11:46:16.454Z,23.90
2017-07-14T11:48:44.594Z,24.20
2017-07-14T11:51:12.765Z,24.40
2017-07-14T11:53:40.867Z,24.50
2017-07-14T11:56:08.966Z,24.80
2017-07-14T11:58:37.236Z,25.00
2017-07-14T12:01:05.386Z,25.30
2017-07-14T12:03:33.509Z,25.50
2017-07-14T12:06:01.637Z,25.60
2017-07-14T12:08:29.773Z,25.40
2017-07-14T12:10:57.867Z,25.30
2017-07-14T12:13:25.967Z,25.10
2017-07-14T12:15:54.196Z,24.80
2017-07-14T12:18:22.297Z,24.70
2017-07-14T12:20:50.478Z,24.60
2017-07-14T12:23:18.564Z,24.50
2017-07-14T12:25:46.687Z,24.50
2017-07-14T12:28:14.806Z,24.30
2017-07-14T12:30:42.913Z,24.20
2017-07-14T12:33:11.036Z,24.10
2017-07-14T12:35:39.137Z,24.00
2017-07-14T12:38:07.230Z,23.90
2017-07-14T12:40:35.457Z,23.70
2017-07-14T12:43:03.565Z,23.70
2017-07-14T12:45:31.697Z,23.70
2017-07-14T12:47:59.825Z,23.60
2017-07-14T12:50:27.959Z,23.60
2017-07-14T12:52:56.053Z,23.60
2017-07-14T12:55:24.297Z,23.70
2017-07-14T12:57:52.398Z,23.70
2017-07-14T13:00:20.540Z,23.70
2017-07-14T13:02:48.640Z,23.50
2017-07-14T13:05:16.741Z,23.50
2017-07-14T13:07:45.553Z,23.40
2017-07-14T13:10:13.664Z,23.30
2017-07-14T13:12:41.778Z,23.30
2017-07-14T13:15:10.029Z,23.60
2017-07-14T13:17:38.125Z,23.90
2017-07-14T13:20:06.222Z,24.30
2017-07-14T13:22:34.349Z,24.30
2017-07-14T13:25:02.487Z,24.40
2017-07-14T13:27:30.577Z,24.30
2017-07-14T13:29:58.826Z,24.30
2017-07-14T13:32:26.934Z,24.20
2017-07-14T13:34:55.053Z,24.00
2017-07-14T13:37:24.391Z,23.80
2017-07-14T13:39:52.486Z,23.60
2017-07-14T13:42:20.586Z,23.40
2017-07-14T13:44:48.709Z,23.30
2017-07-14T13:47:17.363Z,23.30
2017-07-14T13:49:45.614Z,23.20
2017-07-14T13:52:13.722Z,23.10
2017-07-14T13:54:41.829Z,23.10
2017-07-14T13:57:09.958Z,23.50
2017-07-14T13:59:38.053Z,23.80
2017-07-14T14:02:06.165Z,24.00
2017-07-14T14:04:37.078Z,24.20
2017-07-14T14:07:05.332Z,24.50
2017-07-14T14:09:34.401Z,24.70
2017-07-14T14:12:02.606Z,24.80
2017-07-14T14:14:30.740Z,24.80
2017-07-14T14:16:58.842Z,24.90
2017-07-14T14:19:26.971Z,25.10
2017-07-14T14:21:55.065Z,25.20
2017-07-14T14:24:23.158Z,25.30
2017-07-14T14:26:51.392Z,25.50
2017-07-14T14:29:19.490Z,25.60
2017-07-14T14:31:47.613Z,25.50
2017-07-14T14:34:15.711Z,25.40
2017-07-14T14:36:43.834Z,25.40
2017-07-14T14:39:11.969Z,25.20
2017-07-14T14:41:40.065Z,25.10
2017-07-14T14:44:08.178Z,24.90
2017-07-14T14:46:36.421Z,24.70
2017-07-14T14:49:05.370Z,24.40
2017-07-14T14:51:33.468Z,24.30
2017-07-14T14:54:01.623Z,23.70
2017-07-14T14:56:29.740Z,23.00
2017-07-14T14:58:57.914Z,22.40
2017-07-14T15:01:26.022Z,21.90
2017-07-14T15:03:54.144Z,21.70
2017-07-14T15:06:22.293Z,21.80
2017-07-14T15:08:50.433Z,21.80
2017-07-14T15:11:18.542Z,21.90
2017-07-14T15:13:46.646Z,22.00
2017-07-14T15:16:14.917Z,22.00
2017-07-14T15:18:43.017Z,22.00
2017-07-14T15:21:11.160Z,22.20
2017-07-14T15:23:39.263Z,22.20
2017-07-14T15:26:07.412Z,22.40
2017-07-14T15:28:35.521Z,22.50
2017-07-14T15:31:03.610Z,22.50
2017-07-14T15:33:31.850Z,22.60
2017-07-14T15:35:59.958Z,22.70
2017-07-14T15:38:28.073Z,22.80
2017-07-14T15:40:56.165Z,23.00
2017-07-14T15:43:24.311Z,23.10
2017-07-14T15:45:52.425Z,23.20
2017-07-14T15:48:20.659Z,23.40
2017-07-14T15:50:48.786Z,23.40
2017-07-14T15:53:16.886Z,23.50
2017-07-14T15:55:45.017Z,23.70
2017-07-14T15:58:13.133Z,23.70
2017-07-14T16:00:41.228Z,23.70
2017-07-14T16:03:09.377Z,23.80
2017-07-14T16:05:37.473Z,23.80
2017-07-14T16:08:05.743Z,23.80
2017-07-14T16:10:33.837Z,23.80
2017-07-14T16:13:01.947Z,23.80
2017-07-14T16:15:31.297Z,23.80
2017-07-14T16:17:59.406Z,23.80
2017-07-14T16:20:27.502Z,23.80
2017-07-14T16:22:55.633Z,23.90
2017-07-14T16:25:23.884Z,24.00
2017-07-14T16:27:51.990Z,24.00
2017-07-14T16:30:20.136Z,24.00
2017-07-14T16:32:48.256Z,24.00
2017-07-14T16:35:16.367Z,23.90
2017-07-14T16:37:44.501Z,23.80
2017-07-14T16:40:12.621Z,23.80
2017-07-14T16:42:40.704Z,23.70
2017-07-14T16:45:08.937Z,23.60
2017-07-14T16:47:37.051Z,23.60
2017-07-14T16:50:05.179Z,23.70
2017-07-14T16:52:33.328Z,23.70
2017-07-14T16:55:01.424Z,23.70
2017-07-14T16:57:29.549Z,23.60
2017-07-14T16:59:57.819Z,23.60
2017-07-14T17:02:25.913Z,23.50
2017-07-14T17:04:54.012Z,23.40
2017-07-14T17:07:22.133Z,23.20
2017-07-14T17:09:50.248Z,23.20
2017-07-14T17:12:18.381Z,23.00
2017-07-14T17:14:46.505Z,22.90
2017-07-14T17:17:14.755Z,22.80
2017-07-14T17:19:42.858Z,22.70
2017-07-14T17:22:10.959Z,22.60
2017-07-14T17:24:39.103Z,22.50
2017-07-14T17:27:07.262Z,22.50
2017-07-14T17:29:35.377Z,22.40
2017-07-14T17:32:03.492Z,22.40
2017-07-14T17:34:31.595Z,22.30
2017-07-14T17:36:59.738Z,22.20
2017-07-14T17:39:27.847Z,22.20
2017-07-14T17:41:55.967Z,22.10
2017-07-14T17:44:24.210Z,22.10
2017-07-14T17:46:52.308Z,22.00
2017-07-14T17:49:21.689Z,22.00
2017-07-14T17:51:49.792Z,22.00
2017-07-14T17:54:17.949Z,21.90
2017-07-14T17:56:46.045Z,21.90
2017-07-14T17:59:14.162Z,22.10
2017-07-14T18:01:42.417Z,22.20
2017-07-14T18:04:10.514Z,22.30
2017-07-14T18:06:38.629Z,22.40
2017-07-14T18:09:06.765Z,22.50
2017-07-14T18:11:34.901Z,22.50
2017-07-14T18:14:03.001Z,22.60
2017-07-14T18:16:31.177Z,22.70
2017-07-14T18:18:59.282Z,22.70
2017-07-14T18:21:27.469Z,22.70
2017-07-14T18:23:55.577Z,22.70
2017-07-14T18:26:23.693Z,22.60
2017-07-14T18:28:51.829Z,22.70
2017-07-14T18:31:19.937Z,22.70
2017-07-14T18:33:48.046Z,22.70
2017-07-14T18:36:16.239Z,22.60
2017-07-14T18:38:44.345Z,22.60
2017-07-14T18:41:12.462Z,22.60
2017-07-14T18:43:40.582Z,22.60
2017-07-14T18:46:08.728Z,22.60
2017-07-14T18:48:36.834Z,22.60
2017-07-14T18:51:04.975Z,22.60
2017-07-14T18:53:33.086Z,22.60
2017-07-14T18:56:01.177Z,22.60
2017-07-14T18:58:29.455Z,22.60
2017-07-14T19:00:57.537Z,22.50
2017-07-14T19:03:25.658Z,22.60
2017-07-14T19:05:53.795Z,22.60
2017-07-14T19:08:21.939Z,22.60
2017-07-14T19:10:50.201Z,22.60
2017-07-14T19:13:18.323Z,22.50
2017-07-14T19:15:47.673Z,22.20
2017-07-14T19:18:15.786Z,22.00
2017-07-14T19:20:43.922Z,21.80
2017-07-14T19:23:12.046Z,21.50
2017-07-14T19:25:40.162Z,21.40
2017-07-14T19:28:08.342Z,21.20
2017-07-14T19:30:36.469Z,21.00
2017-07-14T19:33:04.602Z,20.80
2017-07-14T19:35:32.707Z,20.70
2017-07-14T19:38:00.842Z,20.60
2017-07-14T19:40:28.954Z,20.50
2017-07-14T19:42:57.061Z,20.40
2017-07-14T19:45:25.322Z,20.40
2017-07-14T19:47:53.417Z,20.40
2017-07-14T19:50:21.548Z,20.30
2017-07-14T19:52:49.663Z,20.30
2017-07-14T19:55:17.814Z,20.20
2017-07-14T19:57:45.922Z,20.20
2017-07-14T20:00:14.158Z,20.10
2017-07-14T20:02:42.260Z,20.10
2017-07-14T20:05:10.414Z,20.10
2017-07-14T20:07:38.522Z,20.10
2017-07-14T20:10:06.679Z,20.10
2017-07-14T20:12:34.793Z,20.10
2017-07-14T20:15:02.930Z,20.00
2017-07-14T20:17:31.088Z,20.00
2017-07-14T20:19:59.170Z,20.00
2017-07-14T20:22:27.973Z,20.00
2017-07-14T20:24:56.235Z,20.00
2017-07-14T20:27:24.367Z,20.00
2017-07-14T20:29:52.552Z,20.00
2017-07-14T20:32:20.649Z,19.90
2017-07-14T20:34:48.780Z,19.90
2017-07-14T20:37:16.955Z,19.90
2017-07-14T20:39:45.062Z,19.80
2017-07-14T20:42:13.349Z,19.80
2017-07-14T20:44:41.465Z,19.90
2017-07-14T20:47:09.564Z,19.90
2017-07-14T20:49:37.723Z,19.80
2017-07-14T20:52:05.827Z,19.80
2017-07-14T20:54:33.960Z,19.80
2017-07-14T20:57:02.098Z,19.70
2017-07-14T20:59:30.365Z,19.70
2017-07-14T21:01:58.461Z,19.60
2017-07-14T21:04:26.566Z,19.60
2017-07-14T21:06:54.931Z,19.60
2017-07-14T21:09:23.053Z,19.60
2017-07-14T21:11:51.153Z,19.60
2017-07-14T21:14:19.321Z,19.70
2017-07-14T21:16:47.465Z,19.70
2017-07-14T21:19:15.573Z,19.70
2017-07-14T21:21:43.805Z,19.60
2017-07-14T21:24:11.946Z,19.60
2017-07-14T21:26:40.046Z,19.60
2017-07-14T21:29:08.146Z,19.50
2017-07-14T21:31:36.273Z,19.40
2017-07-14T21:34:04.507Z,19.50
2017-07-14T21:36:32.609Z,19.50
2017-07-14T21:39:00.754Z,19.50
2017-07-14T21:41:28.893Z,19.40
2017-07-14T21:43:57.009Z,19.30
2017-07-14T21:46:25.105Z,19.20
2017-07-14T21:48:53.345Z,19.20
2017-07-14T21:51:21.487Z,19.00
2017-07-14T21:53:49.581Z,19.00
2017-07-14T21:56:17.683Z,18.90
2017-07-14T21:58:45.802Z,18.80
2017-07-14T22:01:13.911Z,18.70
2017-07-14T22:03:42.785Z,18.50
2017-07-14T22:06:11.493Z,18.50
2017-07-14T22:08:40.955Z,18.30
2017-07-14T22:11:09.073Z,18.20
2017-07-14T22:13:37.181Z,18.10
2017-07-14T22:16:05.292Z,17.90
2017-07-14T22:18:33.430Z,17.80
2017-07-14T22:21:01.542Z,17.70
2017-07-14T22:23:29.789Z,17.70
2017-07-14T22:25:57.911Z,17.60
2017-07-14T22:28:26.889Z,17.60
2017-07-14T22:30:55.017Z,17.50
2017-07-14T22:33:23.108Z,17.30
2017-07-14T22:35:51.249Z,17.10
2017-07-14T22:38:19.373Z,17.10
2017-07-14T22:40:47.611Z,17.10
2017-07-14T22:43:15.700Z,17.00
2017-07-14T22:45:43.840Z,17.00
2017-07-14T22:48:11.933Z,17.00
2017-07-14T22:50:40.037Z,16.90
2017-07-14T22:53:08.159Z,16.90
2017-07-14T22:55:36.274Z,17.00
2017-07-14T22:58:04.368Z,16.90
2017-07-14T23:00:32.830Z,16.90
2017-07-14T23:03:01.042Z,16.90
2017-07-14T23:05:29.210Z,16.90
2017-07-14T23:07:57.377Z,16.90
2017-07-14T23:10:25.587Z,16.80
2017-07-14T23:12:53.831Z,16.90
2017-07-14T23:15:21.943Z,16.90
2017-07-14T23:17:50.183Z,16.90
2017-07-14T23:20:18.387Z,17.00
2017-07-14T23:22:46.552Z,17.00
2017-07-14T23:25:14.749Z,17.00
2017-07-14T23:27:42.938Z,16.90
2017-07-14T23:30:11.094Z,17.00
2017-07-14T23:32:39.286Z,16.90
2017-07-14T23:35:07.425Z,16.90
2017-07-14T23:37:35.658Z,17.00
2017-07-14T23:40:03.804Z,17.00
2017-07-14T23:42:33.172Z,17.00
2017-07-14T23:45:01.360Z,17.00
2017-07-14T23:47:29.557Z,17.10
2017-07-14T23:49:57.727Z,17.10
2017-07-14T23:52:25.891Z,17.10
2017-07-14T23:54:54.064Z,17.00
2017-07-14T23:57:22.214Z,16.90
2017-07-14T23:59:50.634Z,16.90
